Ufo 3 — IUNV — position and weather

sailwx.info

Track history (hours):
 
Tides and Currents Weather Stations Pressure Air Temp Water Temp Dewpoint Dewpoint Depression Visibility Wind Speed Wind Dir Waves Ship Positions

Ufo 3

Last reported at 2014-Jul-28 12:28 UTC. Time now 2014-Jul-30 09:06 UTC.
Position N 44°06' E 009°44'.

Length 28 m.

Type: Passenger vessel. MMSI: 247031600.

Date/timePositionNaut miles runAvg speedWind from/ knotsBaromVisibWave heightAir tempDewpointWater temp
2014-Jul-28 12:28N 44°06' E 009°44'5 5.8
2014-Jul-28 11:33N 44°03' E 009°50'0 0.0
2014-Jul-28 10:33N 44°03' E 009°50'2 1.7
2014-Jul-28 09:33N 44°04' E 009°48'8 7.8
2014-Jul-28 08:32N 44°09' E 009°39'1 1.4
2014-Jul-28 07:34N 44°08' E 009°38'1010.1
2014-Jul-28 06:33N 44°03' E 009°50'0 0.4
2014-Jul-28 05:33N 44°03' E 009°51'0 0.0
2014-Jul-27 15:34N 44°03' E 009°51'10 7.0
2014-Jul-27 14:09N 44°08' E 009°39'0 0.4
2014-Jul-27 13:33N 44°09' E 009°39'4 4.2
2014-Jul-27 12:30N 44°06' E 009°44'5 5.5
2014-Jul-27 11:33N 44°03' E 009°50'1 0.7
2014-Jul-27 10:33N 44°02' E 009°50'3 3.0
2014-Jul-27 09:33N 44°04' E 009°47'7 6.1
2014-Jul-27 08:25N 44°08' E 009°39'1 1.5
2014-Jul-27 07:33N 44°07' E 009°39'9 9.0
2014-Jul-27 06:34N 44°03' E 009°51'0 0.0
2014-Jul-26 09:33N 44°03' E 009°51'0 0.0
2014-Jul-26 08:33N 44°03' E 009°51'3 3.0
2014-Jul-26 07:33N 44°06' E 009°50'3 2.8
2014-Jul-26 06:33N 44°03' E 009°51'0 0.0
2014-Jul-25 16:20N 44°03' E 009°51'1010.5
2014-Jul-25 15:24N 44°08' E 009°39'21 4.1
2014-Jul-25 10:17N 44°18' E 009°13'19 9.8
2014-Jul-25 08:21N 44°09' E 009°37'6 6.7
2014-Jul-25 07:27N 44°06' E 009°44'8 8.8
2014-Jul-25 06:34N 44°04' E 009°55'3 3.1
2014-Jul-25 05:34N 44°03' E 009°51'0 0.0
2014-Jul-24 16:20N 44°03' E 009°51'7 7.5
2014-Jul-24 15:24N 44°07' E 009°43'3 3.5
2014-Jul-24 14:32N 44°09' E 009°39'0 0.0
2014-Jul-24 13:32N 44°09' E 009°39'0 0.0
2014-Jul-24 12:23N 44°09' E 009°39'0 0.0
2014-Jul-24 11:28N 44°09' E 009°39'0 0.1
2014-Jul-24 10:22N 44°09' E 009°39'2 1.4
2014-Jul-24 09:08N 44°08' E 009°41'2 1.5
2014-Jul-24 07:31N 44°06' E 009°44'5 5.7
2014-Jul-24 06:33N 44°03' E 009°50'0 0.0
2014-Jul-23 06:20N 44°03' E 009°51'3 0.2
2014-Jul-22 16:33N 44°04' E 009°54'0 0.3
2014-Jul-22 15:33N 44°04' E 009°54'3 2.8
2014-Jul-22 14:33N 44°03' E 009°50'0 0.0
2014-Jul-22 13:33N 44°03' E 009°50'0 0.0
2014-Jul-22 12:33N 44°03' E 009°50'0 0.0
2014-Jul-22 11:33N 44°03' E 009°50'1 0.9
2014-Jul-22 10:33N 44°02' E 009°50'1 0.9
2014-Jul-22 09:33N 44°03' E 009°50'0 0.0
2014-Jul-22 08:33N 44°03' E 009°50'3 3.4
2014-Jul-22 07:33N 44°04' E 009°55'3 3.1
2014-Jul-22 06:33N 44°03' E 009°51'0 0.0
2014-Jul-21 09:28N 44°03' E 009°51'0 0.5
2014-Jul-21 08:33N 44°03' E 009°50'0 0.4
2014-Jul-21 07:25N 44°03' E 009°51'0 0.0
2014-Jul-21 06:33N 44°03' E 009°51'0 0.0
2014-Jul-21 05:33N 44°03' E 009°51'2 0.2
2014-Jul-20 17:33N 44°05' E 009°50'0 0.3
2014-Jul-20 16:34N 44°06' E 009°50'1 0.8
2014-Jul-20 15:33N 44°06' E 009°50'1 0.8
2014-Jul-20 14:33N 44°06' E 009°50'1 0.8
2014-Jul-20 13:33N 44°06' E 009°50'0 0.3
2014-Jul-20 12:33N 44°06' E 009°50'0 0.2
2014-Jul-20 11:33N 44°06' E 009°50'0 0.0
2014-Jul-20 10:33N 44°06' E 009°50'4 3.9
2014-Jul-20 09:33N 44°02' E 009°51'4 4.0
2014-Jul-20 08:33N 44°06' E 009°50'4 4.0
2014-Jul-20 07:33N 44°02' E 009°51'3 3.2
2014-Jul-20 06:33N 44°06' E 009°50'3 0.2
2014-Jul-19 18:12N 44°03' E 009°51'1 0.8
2014-Jul-19 17:33N 44°03' E 009°52'1 0.9
2014-Jul-19 16:33N 44°03' E 009°50'0 0.1
2014-Jul-19 15:33N 44°03' E 009°50'1 0.8
2014-Jul-19 14:33N 44°04' E 009°51'1 0.6
2014-Jul-19 13:33N 44°03' E 009°50'0 0.2
2014-Jul-19 12:33N 44°03' E 009°50'0 0.0
2014-Jul-19 11:33N 44°03' E 009°50'2 1.5
2014-Jul-19 10:33N 44°02' E 009°51'2 1.5
2014-Jul-19 09:33N 44°03' E 009°50'0 0.0
2014-Jul-19 08:33N 44°03' E 009°50'3 3.4
2014-Jul-19 07:33N 44°04' E 009°54'3 3.4
2014-Jul-19 06:33N 44°03' E 009°50'0 0.3
2014-Jul-19 05:33N 44°03' E 009°51'0 0.0
2014-Jul-18 17:09N 44°03' E 009°51'6 7.8
2014-Jul-18 16:25N 44°06' E 009°44'0 0.1
2014-Jul-18 14:25N 44°06' E 009°44'8 9.0
2014-Jul-18 13:33N 44°04' E 009°54'0 0.0
2014-Jul-18 12:33N 44°04' E 009°54'  
Track history (hours):
 
Tides and Currents Weather Stations Pressure Air Temp Water Temp Dewpoint Dewpoint Depression Visibility Wind Speed Wind Dir Waves Ship Positions

Ufo 3

Last reported at 2014-Jul-28 12:28 UTC. Time now 2014-Jul-30 09:06 UTC.
Position N 44°06' E 009°44'.

Length 28 m.

Type: Passenger vessel. MMSI: 247031600.

Date/timePositionNaut miles runAvg speedWind from/ knotsBaromVisibWave heightAir tempDewpointWater temp
2014-Jul-28 12:28N 44°06' E 009°44'5 5.8
2014-Jul-28 11:33N 44°03' E 009°50'0 0.0
2014-Jul-28 10:33N 44°03' E 009°50'2 1.7
2014-Jul-28 09:33N 44°04' E 009°48'8 7.8
2014-Jul-28 08:32N 44°09' E 009°39'1 1.4
2014-Jul-28 07:34N 44°08' E 009°38'1010.1
2014-Jul-28 06:33N 44°03' E 009°50'0 0.4
2014-Jul-28 05:33N 44°03' E 009°51'0 0.0
2014-Jul-27 15:34N 44°03' E 009°51'10 7.0
2014-Jul-27 14:09N 44°08' E 009°39'0 0.4
2014-Jul-27 13:33N 44°09' E 009°39'4 4.2
2014-Jul-27 12:30N 44°06' E 009°44'5 5.5
2014-Jul-27 11:33N 44°03' E 009°50'1 0.7
2014-Jul-27 10:33N 44°02' E 009°50'3 3.0
2014-Jul-27 09:33N 44°04' E 009°47'7 6.1
2014-Jul-27 08:25N 44°08' E 009°39'1 1.5
2014-Jul-27 07:33N 44°07' E 009°39'9 9.0
2014-Jul-27 06:34N 44°03' E 009°51'0 0.0
2014-Jul-26 09:33N 44°03' E 009°51'0 0.0
2014-Jul-26 08:33N 44°03' E 009°51'3 3.0
2014-Jul-26 07:33N 44°06' E 009°50'3 2.8
2014-Jul-26 06:33N 44°03' E 009°51'0 0.0
2014-Jul-25 16:20N 44°03' E 009°51'1010.5
2014-Jul-25 15:24N 44°08' E 009°39'21 4.1
2014-Jul-25 10:17N 44°18' E 009°13'19 9.8
2014-Jul-25 08:21N 44°09' E 009°37'6 6.7
2014-Jul-25 07:27N 44°06' E 009°44'8 8.8
2014-Jul-25 06:34N 44°04' E 009°55'3 3.1
2014-Jul-25 05:34N 44°03' E 009°51'0 0.0
2014-Jul-24 16:20N 44°03' E 009°51'7 7.5
2014-Jul-24 15:24N 44°07' E 009°43'3 3.5
2014-Jul-24 14:32N 44°09' E 009°39'0 0.0
2014-Jul-24 13:32N 44°09' E 009°39'0 0.0
2014-Jul-24 12:23N 44°09' E 009°39'0 0.0
2014-Jul-24 11:28N 44°09' E 009°39'0 0.1
2014-Jul-24 10:22N 44°09' E 009°39'2 1.4
2014-Jul-24 09:08N 44°08' E 009°41'2 1.5
2014-Jul-24 07:31N 44°06' E 009°44'5 5.7
2014-Jul-24 06:33N 44°03' E 009°50'0 0.0
2014-Jul-23 06:20N 44°03' E 009°51'3 0.2
2014-Jul-22 16:33N 44°04' E 009°54'0 0.3
2014-Jul-22 15:33N 44°04' E 009°54'3 2.8
2014-Jul-22 14:33N 44°03' E 009°50'0 0.0
2014-Jul-22 13:33N 44°03' E 009°50'0 0.0
2014-Jul-22 12:33N 44°03' E 009°50'0 0.0
2014-Jul-22 11:33N 44°03' E 009°50'1 0.9
2014-Jul-22 10:33N 44°02' E 009°50'1 0.9
2014-Jul-22 09:33N 44°03' E 009°50'0 0.0
2014-Jul-22 08:33N 44°03' E 009°50'3 3.4
2014-Jul-22 07:33N 44°04' E 009°55'3 3.1
2014-Jul-22 06:33N 44°03' E 009°51'0 0.0
2014-Jul-21 09:28N 44°03' E 009°51'0 0.5
2014-Jul-21 08:33N 44°03' E 009°50'0 0.4
2014-Jul-21 07:25N 44°03' E 009°51'0 0.0
2014-Jul-21 06:33N 44°03' E 009°51'0 0.0
2014-Jul-21 05:33N 44°03' E 009°51'2 0.2
2014-Jul-20 17:33N 44°05' E 009°50'0 0.3
2014-Jul-20 16:34N 44°06' E 009°50'1 0.8
2014-Jul-20 15:33N 44°06' E 009°50'1 0.8
2014-Jul-20 14:33N 44°06' E 009°50'1 0.8
2014-Jul-20 13:33N 44°06' E 009°50'0 0.3
2014-Jul-20 12:33N 44°06' E 009°50'0 0.2
2014-Jul-20 11:33N 44°06' E 009°50'0 0.0
2014-Jul-20 10:33N 44°06' E 009°50'4 3.9
2014-Jul-20 09:33N 44°02' E 009°51'4 4.0
2014-Jul-20 08:33N 44°06' E 009°50'4 4.0
2014-Jul-20 07:33N 44°02' E 009°51'3 3.2
2014-Jul-20 06:33N 44°06' E 009°50'3 0.2
2014-Jul-19 18:12N 44°03' E 009°51'1 0.8
2014-Jul-19 17:33N 44°03' E 009°52'1 0.9
2014-Jul-19 16:33N 44°03' E 009°50'0 0.1
2014-Jul-19 15:33N 44°03' E 009°50'1 0.8
2014-Jul-19 14:33N 44°04' E 009°51'1 0.6
2014-Jul-19 13:33N 44°03' E 009°50'0 0.2
2014-Jul-19 12:33N 44°03' E 009°50'0 0.0
2014-Jul-19 11:33N 44°03' E 009°50'2 1.5
2014-Jul-19 10:33N 44°02' E 009°51'2 1.5
2014-Jul-19 09:33N 44°03' E 009°50'0 0.0
2014-Jul-19 08:33N 44°03' E 009°50'3 3.4
2014-Jul-19 07:33N 44°04' E 009°54'3 3.4
2014-Jul-19 06:33N 44°03' E 009°50'0 0.3
2014-Jul-19 05:33N 44°03' E 009°51'0 0.0
2014-Jul-18 17:09N 44°03' E 009°51'6 7.8
2014-Jul-18 16:25N 44°06' E 009°44'0 0.1
2014-Jul-18 14:25N 44°06' E 009°44'8 9.0
2014-Jul-18 13:33N 44°04' E 009°54'0 0.0
2014-Jul-18 12:33N 44°04' E 009°54'  

Dump ship's entire track history